Time;durP1;ratioP1;P1;durP2;ratioP2;P2;SDS_P1;SDS_P2;PMS_P1;PMS_P2;Temp;Humidity;BMP_temperature;BMP_pressure;BME280_temperature;BME280_humidity;BME280_pressure;Samples;Min_cycle;Max_cycle;Signal;HPM_P1;HPM_P2
2020/12/16 00:01:33;;;;;;;7.90;3.20;;;20.80;69.00;;;;;;5084026;28;20035;-61
2020/12/16 00:04:00;;;;;;;8.25;2.80;;;20.90;69.20;;;;;;5077717;28;20019;-57
2020/12/16 00:06:27;;;;;;;9.10;3.42;;;20.90;69.00;;;;;;5087168;28;20721;-57
2020/12/16 00:08:54;;;;;;;10.90;3.90;;;20.90;69.30;;;;;;5079537;28;20043;-58
2020/12/16 00:11:21;;;;;;;10.98;3.22;;;20.90;69.40;;;;;;5068420;28;20020;-59
2020/12/16 00:13:48;;;;;;;10.23;3.58;;;20.80;70.00;;;;;;5081793;27;20170;-58
2020/12/16 00:16:15;;;;;;;6.63;2.72;;;20.90;69.70;;;;;;5066299;28;20053;-56
2020/12/16 00:18:44;;;;;;;7.80;3.25;;;20.90;69.60;;;;;;5088533;27;20826;-58
2020/12/16 00:21:11;;;;;;;6.05;2.88;;;21.00;69.80;;;;;;5079334;28;20082;-58
2020/12/16 00:23:38;;;;;;;7.72;3.78;;;20.90;70.00;;;;;;5086733;28;20038;-60
2020/12/16 00:26:05;;;;;;;6.32;2.92;;;21.00;70.20;;;;;;5078740;28;20019;-56
2020/12/16 00:28:32;;;;;;;5.13;2.92;;;21.00;69.80;;;;;;5072359;28;20046;-57
2020/12/16 00:30:59;;;;;;;4.43;2.50;;;21.00;69.90;;;;;;5061971;28;20170;-60
2020/12/16 00:33:26;;;;;;;8.55;3.20;;;21.00;69.80;;;;;;5081110;27;20273;-55
2020/12/16 00:35:53;;;;;;;4.45;2.60;;;21.10;70.20;;;;;;5078432;28;20027;-53
2020/12/16 00:38:20;;;;;;;5.13;2.50;;;21.20;70.80;;;;;;5078881;27;20559;-56
2020/12/16 00:40:47;;;;;;;5.20;2.55;;;21.20;70.70;;;;;;5084507;28;20032;-58
2020/12/16 00:43:14;;;;;;;5.65;2.80;;;21.30;70.20;;;;;;5076983;28;20111;-60
2020/12/16 00:45:41;;;;;;;6.35;2.45;;;21.30;71.00;;;;;;5084134;28;20015;-64
2020/12/16 00:48:08;;;;;;;4.68;3.00;;;21.40;70.40;;;;;;5080939;28;20562;-58
2020/12/16 00:50:35;;;;;;;3.60;2.30;;;21.40;70.20;;;;;;5039295;28;81090;-56
2020/12/16 00:53:02;;;;;;;5.00;3.08;;;21.50;70.00;;;;;;5042292;28;20114;-61
2020/12/16 00:55:29;;;;;;;3.65;2.33;;;21.50;70.40;;;;;;5044061;28;20029;-57
2020/12/16 00:58:23;;;;;;;4.35;2.45;;;21.50;70.10;;;;;;5116323;27;20137;-42
2020/12/16 01:03:07;;;;;;;6.05;2.75;;;21.60;70.50;;;;;;5025810;27;61541;-38
2020/12/16 01:05:37;;;;;;;5.18;2.30;;;21.70;70.10;;;;;;5015733;28;20045;-39
2020/12/16 01:08:09;;;;;;;5.93;2.90;;;21.70;70.10;;;;;;5005994;28;20049;-39
2020/12/16 01:10:41;;;;;;;4.43;2.92;;;21.70;70.50;;;;;;5021438;28;20058;-41
2020/12/16 01:13:12;;;;;;;4.93;2.50;;;21.80;70.60;;;;;;5010435;28;20053;-38
2020/12/16 01:15:43;;;;;;;4.32;2.63;;;21.80;70.20;;;;;;5007694;28;20057;-39
2020/12/16 01:18:19;;;;;;;4.90;2.80;;;21.80;71.00;;;;;;5022100;28;20053;-38
2020/12/16 01:20:52;;;;;;;6.18;2.80;;;21.90;71.50;;;;;;5005546;28;20509;-42
2020/12/16 01:23:47;;;;;;;9.20;2.95;;;21.90;70.30;;;;;;5004639;28;20077;-39
2020/12/16 01:26:21;;;;;;;5.60;2.70;;;22.00;70.20;;;;;;5020525;28;20092;-39
2020/12/16 01:29:00;;;;;;;3.05;2.50;;;22.00;70.30;;;;;;5032766;28;20056;-38
2020/12/16 01:31:41;;;;;;;2.92;2.42;;;22.00;70.60;;;;;;5042888;28;20268;-39
2020/12/16 01:34:20;;;;;;;4.13;2.40;;;22.10;70.40;;;;;;5030083;28;20049;-38
2020/12/16 01:36:58;;;;;;;3.63;2.28;;;22.20;70.60;;;;;;5039275;28;20053;-38
2020/12/16 01:39:31;;;;;;;2.80;2.35;;;22.30;70.40;;;;;;5027862;28;20175;-38
2020/12/16 01:42:02;;;;;;;4.05;2.38;;;22.30;70.10;;;;;;5020807;28;20045;-39
2020/12/16 01:44:33;;;;;;;6.28;2.30;;;22.30;70.00;;;;;;5028757;28;20092;-39
2020/12/16 01:47:08;;;;;;;4.75;2.53;;;22.40;70.20;;;;;;5039367;28;20515;-39
2020/12/16 01:49:47;;;;;;;4.80;2.45;;;22.50;71.30;;;;;;5031644;28;20049;-38
2020/12/16 01:52:25;;;;;;;4.10;2.38;;;22.60;70.50;;;;;;5025537;28;20068;-39
2020/12/16 01:55:02;;;;;;;4.43;2.58;;;22.50;69.90;;;;;;5031785;28;20055;-39
2020/12/16 01:57:45;;;;;;;2.63;2.42;;;22.70;70.00;;;;;;5024551;28;20178;-38
2020/12/16 02:00:26;;;;;;;3.33;2.05;;;22.80;69.90;;;;;;5032621;28;20140;-38
2020/12/16 02:03:05;;;;;;;3.83;2.67;;;22.90;69.50;;;;;;5031841;28;20052;-39
2020/12/16 02:06:09;;;;;;;4.15;2.63;;;23.00;69.50;;;;;;5031516;28;20548;-39
2020/12/16 02:08:46;;;;;;;2.85;2.65;;;23.00;69.50;;;;;;5032662;28;20388;-38
2020/12/16 02:11:19;;;;;;;3.80;2.47;;;23.10;69.40;;;;;;5029811;28;20580;-40
2020/12/16 02:13:58;;;;;;;2.70;2.17;;;23.20;69.10;;;;;;5019015;28;20533;-38
2020/12/16 02:16:29;;;;;;;4.10;2.90;;;23.10;68.80;;;;;;5005876;28;20055;-39
2020/12/16 02:19:02;;;;;;;3.97;3.30;;;23.10;68.90;;;;;;5020224;28;20411;-38
2020/12/16 02:21:43;;;;;;;2.97;2.33;;;23.10;69.20;;;;;;5013814;28;20061;-38
2020/12/16 02:24:17;;;;;;;5.80;3.03;;;23.20;68.70;;;;;;5018471;28;20119;-37
2020/12/16 02:26:51;;;;;;;3.25;2.75;;;23.20;68.90;;;;;;5011885;28;20050;-38
2020/12/16 02:29:23;;;;;;;2.80;2.60;;;23.20;68.90;;;;;;5016559;28;20073;-38
2020/12/16 02:32:01;;;;;;;3.05;2.78;;;23.20;69.30;;;;;;5008265;28;20050;-38
2020/12/16 02:34:31;;;;;;;3.95;3.17;;;23.30;69.50;;;;;;5014754;28;20383;-38
2020/12/16 02:37:06;;;;;;;3.00;2.70;;;23.30;69.10;;;;;;5012579;28;20080;-40
2020/12/16 02:39:45;;;;;;;4.78;2.40;;;23.30;68.80;;;;;;5034617;28;20139;-41
2020/12/16 02:42:29;;;;;;;5.78;2.75;;;23.30;68.90;;;;;;5014634;28;20069;-40
2020/12/16 02:45:01;;;;;;;3.15;2.85;;;23.30;69.80;;;;;;5019093;28;20049;-40
2020/12/16 02:47:38;;;;;;;4.55;3.20;;;23.30;69.00;;;;;;5004896;28;20065;-39
2020/12/16 02:50:17;;;;;;;3.40;3.08;;;23.30;69.00;;;;;;5035149;28;20416;-40
2020/12/16 02:52:51;;;;;;;3.83;2.88;;;23.30;69.00;;;;;;5015358;28;20045;-40
2020/12/16 02:55:23;;;;;;;5.18;2.83;;;23.40;69.10;;;;;;5018684;28;20124;-39
2020/12/16 02:58:00;;;;;;;2.70;2.50;;;23.40;69.20;;;;;;5017353;28;20049;-40
2020/12/16 03:00:32;;;;;;;6.65;3.72;;;23.40;68.90;;;;;;5016774;28;20060;-41
2020/12/16 03:03:09;;;;;;;3.30;3.00;;;23.40;69.60;;;;;;5011120;28;20053;-40
2020/12/16 03:05:57;;;;;;;5.60;3.78;;;23.40;69.00;;;;;;5011228;28;20115;-42
2020/12/16 03:08:39;;;;;;;4.20;2.83;;;23.50;69.20;;;;;;5013277;28;20080;-42
2020/12/16 03:11:19;;;;;;;2.88;2.33;;;23.50;69.10;;;;;;5014779;28;20068;-40
2020/12/16 03:13:53;;;;;;;3.92;3.47;;;23.50;69.40;;;;;;5012730;28;20049;-40
2020/12/16 03:16:23;;;;;;;4.13;3.25;;;23.60;69.20;;;;;;5018281;28;20084;-44
2020/12/16 03:19:07;;;;;;;4.82;2.47;;;23.70;68.90;;;;;;5012780;28;20069;-42
2020/12/16 03:21:38;;;;;;;2.67;2.47;;;23.70;69.40;;;;;;5012271;28;20580;-42
2020/12/16 03:24:31;;;;;;;3.95;3.58;;;23.70;69.20;;;;;;5027201;28;20208;-41
2020/12/16 03:27:10;;;;;;;2.72;2.53;;;23.80;69.10;;;;;;5015354;28;20053;-41
2020/12/16 03:30:01;;;;;;;4.45;2.88;;;23.90;69.40;;;;;;5014036;28;20187;-43
2020/12/16 03:32:52;;;;;;;3.80;2.40;;;23.90;69.20;;;;;;5015818;28;20556;-39
2020/12/16 03:35:53;;;;;;;4.75;3.28;;;24.00;69.20;;;;;;5011687;28;20058;-40
2020/12/16 03:38:24;;;;;;;5.13;2.35;;;24.00;69.00;;;;;;5006912;28;20114;-42
2020/12/16 03:40:57;;;;;;;3.78;3.00;;;24.10;69.20;;;;;;5015167;28;20053;-42
2020/12/16 03:43:34;;;;;;;5.13;2.03;;;24.10;69.10;;;;;;5016009;28;20049;-48
2020/12/16 03:46:11;;;;;;;7.88;3.00;;;24.10;68.70;;;;;;5014446;28;20051;-62
2020/12/16 03:48:46;;;;;;;5.25;2.80;;;24.10;68.80;;;;;;5018717;28;20050;-61
2020/12/16 03:51:18;;;;;;;6.70;2.70;;;24.20;68.70;;;;;;5009478;28;20140;-51
2020/12/16 03:53:57;;;;;;;3.78;2.53;;;24.20;68.50;;;;;;5034865;28;20049;-52
2020/12/16 03:56:40;;;;;;;2.33;1.88;;;24.20;68.20;;;;;;5018397;28;20077;-53
2020/12/16 03:59:23;;;;;;;4.95;1.95;;;24.20;68.10;;;;;;5005389;28;20042;-49
2020/12/16 04:02:15;;;;;;;3.67;2.72;;;24.20;68.00;;;;;;5015898;28;20053;-52
2020/12/16 04:05:03;;;;;;;4.07;3.67;;;24.20;67.70;;;;;;4999452;28;20049;-52
2020/12/16 04:07:33;;;;;;;;;;;24.20;67.80;;;;;;5008494;28;20440;-53
2020/12/16 04:10:25;;;;;;;4.38;2.95;;;24.20;67.90;;;;;;5013781;28;20005;-52
2020/12/16 04:12:55;;;;;;;2.65;2.45;;;24.20;67.60;;;;;;5006184;28;20053;-52
2020/12/16 04:15:27;;;;;;;2.45;2.22;;;24.20;67.70;;;;;;5016903;28;20041;-49
2020/12/16 04:17:57;;;;;;;4.82;3.47;;;24.20;67.60;;;;;;5010478;28;20049;-53
2020/12/16 04:20:28;;;;;;;2.53;2.33;;;24.20;67.60;;;;;;5009488;28;20493;-52
2020/12/16 04:23:05;;;;;;;2.08;1.58;;;24.20;67.50;;;;;;5015925;28;20045;-53
2020/12/16 04:25:39;;;;;;;4.05;3.75;;;24.20;67.50;;;;;;5011153;28;20084;-51
2020/12/16 04:28:16;;;;;;;2.03;1.92;;;24.10;67.40;;;;;;5001340;28;20046;-51
2020/12/16 04:30:47;;;;;;;;;;;24.10;67.30;;;;;;5011395;28;20468;-52
2020/12/16 04:33:20;;;;;;;3.15;2.95;;;24.10;67.40;;;;;;5022282;28;20443;-52
2020/12/16 04:35:53;;;;;;;2.92;2.00;;;24.10;67.40;;;;;;5013092;28;20077;-51
2020/12/16 04:38:23;;;;;;;2.95;1.80;;;24.10;67.50;;;;;;5011472;28;20050;-55
2020/12/16 04:40:59;;;;;;;2.00;1.70;;;24.10;67.50;;;;;;5025968;28;20524;-52
2020/12/16 04:43:39;;;;;;;5.85;2.42;;;24.10;67.40;;;;;;5012396;28;20137;-51
2020/12/16 04:46:23;;;;;;;4.33;2.03;;;24.10;67.50;;;;;;4972331;28;20045;-60
2020/12/16 04:48:56;;;;;;;3.53;1.88;;;24.10;67.50;;;;;;5013081;28;20038;-46
2020/12/16 04:51:42;;;;;;;6.22;1.50;;;24.10;67.50;;;;;;5010377;28;20119;-47
2020/12/16 04:54:24;;;;;;;8.93;2.40;;;24.10;67.30;;;;;;5015873;28;20103;-48
2020/12/16 04:56:54;;;;;;;;;;;24.10;67.10;;;;;;5014861;28;20060;-48
2020/12/16 04:59:33;;;;;;;3.63;1.95;;;24.20;67.10;;;;;;5015179;28;19925;-48
2020/12/16 05:02:15;;;;;;;2.58;2.30;;;24.20;66.50;;;;;;4998867;28;20046;-54
2020/12/16 05:05:05;;;;;;;3.20;1.85;;;24.10;66.10;;;;;;5014020;28;20049;-49
2020/12/16 05:07:36;;;;;;;2.67;1.60;;;24.00;65.80;;;;;;5011440;28;20541;-48
2020/12/16 05:10:08;;;;;;;4.47;1.67;;;24.00;66.00;;;;;;5013528;28;20048;-47
2020/12/16 05:12:38;;;;;;;1.88;1.40;;;24.00;66.30;;;;;;5010978;28;20441;-46
2020/12/16 05:15:22;;;;;;;3.72;1.95;;;24.10;66.40;;;;;;5012607;28;20050;-49
2020/12/16 05:18:14;;;;;;;2.92;1.98;;;24.10;66.50;;;;;;5005611;28;20399;-49
2020/12/16 05:20:55;;;;;;;7.30;1.67;;;24.20;66.20;;;;;;5007315;28;20069;-53
2020/12/16 05:23:31;;;;;;;3.20;1.83;;;24.20;66.30;;;;;;5013448;28;20052;-55
2020/12/16 05:26:06;;;;;;;2.20;1.83;;;24.20;66.40;;;;;;5011515;28;20037;-59
2020/12/16 05:28:41;;;;;;;2.83;1.75;;;24.20;66.00;;;;;;5010713;28;20041;-60
2020/12/16 05:31:13;;;;;;;1.85;1.70;;;24.20;65.70;;;;;;5012338;28;20050;-57
2020/12/16 05:33:50;;;;;;;1.88;1.35;;;24.20;65.50;;;;;;5008992;28;20121;-58
2020/12/16 05:36:31;;;;;;;2.65;2.17;;;24.10;65.40;;;;;;5004755;28;20050;-56
2020/12/16 05:39:02;;;;;;;3.78;2.33;;;24.10;65.20;;;;;;5010902;28;20041;-52
2020/12/16 05:41:35;;;;;;;6.22;1.67;;;24.10;65.10;;;;;;5012848;28;20389;-56
2020/12/16 05:44:24;;;;;;;3.55;1.77;;;24.10;65.00;;;;;;5012455;28;20145;-59
2020/12/16 05:46:55;;;;;;;6.35;1.80;;;24.20;65.10;;;;;;5015162;28;20084;-57
2020/12/16 05:49:29;;;;;;;3.38;1.83;;;24.10;64.90;;;;;;5013186;28;20548;-65
2020/12/16 05:52:06;;;;;;;3.47;1.88;;;24.10;64.70;;;;;;5007255;28;20075;-58
2020/12/16 05:54:39;;;;;;;3.42;2.33;;;24.10;64.70;;;;;;5011122;28;20360;-52
2020/12/16 05:57:18;;;;;;;4.10;2.60;;;24.10;64.60;;;;;;5019795;28;20548;-56
2020/12/16 06:00:19;;;;;;;5.22;2.25;;;24.10;64.40;;;;;;5016240;28;20061;-55
2020/12/16 06:02:55;;;;;;;4.43;3.05;;;24.10;64.30;;;;;;5016115;28;20563;-58
2020/12/16 06:05:25;;;;;;;5.05;2.30;;;24.10;64.50;;;;;;5017222;28;20052;-53
2020/12/16 06:07:59;;;;;;;3.15;1.30;;;24.10;64.40;;;;;;5009180;28;20062;-57
2020/12/16 06:10:35;;;;;;;4.00;1.45;;;24.10;64.50;;;;;;5007593;28;20542;-50
2020/12/16 06:13:05;;;;;;;1.77;1.60;;;24.10;64.50;;;;;;5017229;28;20045;-55
2020/12/16 06:15:50;;;;;;;2.47;1.80;;;24.10;64.40;;;;;;5016554;28;20033;-55
2020/12/16 06:18:24;;;;;;;3.03;1.85;;;24.10;64.40;;;;;;5018302;28;20044;-53
2020/12/16 06:20:54;;;;;;;5.43;1.45;;;24.20;64.40;;;;;;5008386;28;20308;-48
2020/12/16 06:23:29;;;;;;;12.25;1.80;;;24.20;64.30;;;;;;5012121;28;20045;-54
2020/12/16 06:26:16;;;;;;;3.80;1.40;;;24.10;64.50;;;;;;5006737;28;20196;-49
2020/12/16 06:28:47;;;;;;;4.90;1.40;;;24.20;64.60;;;;;;5014807;28;20049;-55
2020/12/16 06:31:18;;;;;;;;;;;24.20;64.00;;;;;;5011410;28;20042;-59
2020/12/16 06:34:05;;;;;;;2.83;1.67;;;24.20;64.00;;;;;;5014847;28;20257;-55
2020/12/16 06:36:42;;;;;;;2.58;2.38;;;24.10;63.70;;;;;;5012745;28;20318;-60
2020/12/16 06:39:23;;;;;;;5.75;2.63;;;24.10;63.90;;;;;;5016505;28;20046;-53
2020/12/16 06:42:01;;;;;;;2.72;1.10;;;24.00;63.80;;;;;;5001678;28;20457;-54
2020/12/16 06:44:31;;;;;;;3.10;1.40;;;24.00;63.80;;;;;;5011723;28;20029;-57
2020/12/16 06:47:03;;;;;;;3.85;0.93;;;24.00;63.50;;;;;;5007717;28;20136;-49
2020/12/16 06:49:38;;;;;;;2.85;1.20;;;24.00;63.50;;;;;;5015753;28;20049;-67
2020/12/16 06:52:12;;;;;;;2.08;1.05;;;24.00;63.60;;;;;;5013423;28;20608;-62
2020/12/16 06:54:55;;;;;;;4.05;1.10;;;24.00;63.50;;;;;;5017254;28;20060;-62
2020/12/16 06:57:26;;;;;;;7.47;1.00;;;24.10;63.60;;;;;;5010587;28;20146;-60
2020/12/16 07:00:02;;;;;;;1.00;1.00;;;24.00;63.40;;;;;;5007063;28;20200;-57
2020/12/16 07:02:37;;;;;;;4.43;1.70;;;24.10;63.40;;;;;;5012101;28;20041;-47
2020/12/16 07:05:27;;;;;;;1.48;0.80;;;24.00;63.20;;;;;;5012604;28;20112;-42
2020/12/16 07:08:00;;;;;;;2.27;0.90;;;24.00;63.30;;;;;;5012742;28;20053;-54
2020/12/16 07:10:49;;;;;;;1.23;0.90;;;24.00;63.40;;;;;;5016602;28;20041;-54
2020/12/16 07:13:23;;;;;;;2.65;1.23;;;24.00;63.40;;;;;;5014295;28;20037;-53
2020/12/16 07:15:57;;;;;;;1.15;0.75;;;24.00;63.40;;;;;;5005455;28;20298;-57
2020/12/16 07:18:47;;;;;;;0.80;0.80;;;24.00;63.40;;;;;;5009989;28;20034;-60
2020/12/16 07:21:22;;;;;;;1.20;0.80;;;24.00;63.40;;;;;;5013910;28;20049;-67
2020/12/16 07:23:57;;;;;;;1.42;0.90;;;24.00;63.30;;;;;;5014582;28;20418;-66
2020/12/16 07:26:46;;;;;;;4.28;2.75;;;24.00;63.20;;;;;;5014056;28;20423;-52
2020/12/16 07:29:30;;;;;;;1.88;1.13;;;24.00;63.00;;;;;;5013716;28;20050;-50
2020/12/16 07:32:13;;;;;;;3.85;1.15;;;24.00;63.20;;;;;;5002172;28;20041;-54
2020/12/16 07:34:52;;;;;;;5.13;1.42;;;24.00;63.20;;;;;;5010593;28;20053;-61
2020/12/16 07:37:29;;;;;;;1.23;0.80;;;24.00;63.10;;;;;;5016633;28;20114;-54
2020/12/16 07:40:10;;;;;;;2.55;0.80;;;24.00;63.20;;;;;;5015024;28;20076;-54
2020/12/16 07:42:42;;;;;;;0.90;0.85;;;23.90;63.00;;;;;;5013536;28;20051;-52
2020/12/16 07:45:15;;;;;;;4.15;1.98;;;24.00;62.90;;;;;;5013762;28;20711;-54
2020/12/16 07:47:47;;;;;;;31.17;13.07;;;23.90;62.80;;;;;;5007040;28;20100;-51
2020/12/16 07:50:18;;;;;;;;;;;23.80;62.80;;;;;;5008810;28;20101;-56
2020/12/16 07:52:52;;;;;;;10.63;5.57;;;23.90;62.90;;;;;;5013219;28;20023;-55
2020/12/16 07:55:25;;;;;;;12.95;6.35;;;23.80;63.00;;;;;;5013067;28;20049;-56
2020/12/16 07:57:54;;;;;;;8.23;4.45;;;23.90;63.10;;;;;;5016454;28;20044;-52
2020/12/16 08:00:25;;;;;;;23.17;13.57;;;23.90;63.10;;;;;;5016040;28;20084;-52
2020/12/16 08:02:57;;;;;;;16.33;9.43;;;23.90;63.10;;;;;;5015065;28;20094;-54
2020/12/16 08:05:27;;;;;;;34.40;17.07;;;23.80;63.00;;;;;;5003424;28;20050;-56
2020/12/16 08:08:02;;;;;;;34.63;16.40;;;23.90;62.80;;;;;;5010162;28;20303;-51
2020/12/16 08:10:34;;;;;;;18.63;8.88;;;23.80;62.80;;;;;;5011861;28;20037;-53
2020/12/16 08:13:04;;;;;;;59.35;31.80;;;23.80;62.80;;;;;;5013185;28;20541;-51
2020/12/16 08:15:34;;;;;;;48.90;25.13;;;23.80;62.80;;;;;;5012962;28;20052;-51
2020/12/16 08:18:05;;;;;;;45.63;22.13;;;23.80;62.70;;;;;;5014139;28;20152;-55
2020/12/16 08:20:37;;;;;;;46.25;23.50;;;23.80;62.60;;;;;;5008301;28;20508;-55
2020/12/16 08:23:14;;;;;;;38.80;21.98;;;23.80;62.70;;;;;;5004172;28;20037;-52
2020/12/16 08:25:46;;;;;;;36.95;18.48;;;23.70;62.70;;;;;;5012153;28;20045;-53
2020/12/16 08:28:27;;;;;;;31.42;14.65;;;23.70;62.70;;;;;;5014255;28;20417;-52
2020/12/16 08:31:01;;;;;;;23.65;10.98;;;23.70;62.80;;;;;;5011779;28;20056;-52
2020/12/16 08:33:33;;;;;;;14.05;7.22;;;23.70;62.90;;;;;;5012414;28;20042;-46
2020/12/16 08:36:09;;;;;;;16.60;7.25;;;23.70;63.00;;;;;;5010559;28;20084;-46
2020/12/16 08:38:44;;;;;;;16.08;7.18;;;23.60;63.00;;;;;;5005000;28;20325;-46
2020/12/16 08:41:25;;;;;;;11.02;6.35;;;23.70;63.10;;;;;;5006011;28;20189;-48
2020/12/16 08:43:56;;;;;;;7.53;4.45;;;23.60;63.80;;;;;;5013977;28;20112;-46
2020/12/16 08:46:28;;;;;;;;;;;23.70;63.20;;;;;;5009572;28;20042;-46
2020/12/16 08:49:07;;;;;;;6.68;3.85;;;23.70;63.20;;;;;;5014371;28;19928;-47
2020/12/16 08:51:41;;;;;;;6.22;3.78;;;23.70;63.10;;;;;;5026236;28;20553;-46
2020/12/16 08:54:19;;;;;;;7.88;3.42;;;23.70;63.10;;;;;;5011203;28;20049;-45
2020/12/16 08:56:53;;;;;;;6.45;3.25;;;23.70;63.20;;;;;;5002284;28;20531;-47
2020/12/16 08:59:30;;;;;;;5.95;3.47;;;23.60;63.10;;;;;;5014164;28;20124;-46
2020/12/16 09:02:07;;;;;;;5.05;2.58;;;23.70;63.10;;;;;;5008783;28;20029;-46
2020/12/16 09:04:43;;;;;;;4.15;2.90;;;23.70;63.20;;;;;;5014532;28;20060;-51
2020/12/16 09:07:24;;;;;;;4.05;1.73;;;23.70;63.10;;;;;;5013961;28;20049;-43
2020/12/16 09:10:02;;;;;;;3.95;1.60;;;23.70;63.00;;;;;;5015563;28;20037;-39
2020/12/16 09:12:33;;;;;;;4.53;1.55;;;23.50;62.60;;;;;;5001704;28;20052;-39
2020/12/16 09:15:07;;;;;;;4.82;1.55;;;23.30;62.80;;;;;;5008790;28;20152;-39
2020/12/16 09:17:40;;;;;;;1.00;0.60;;;23.10;63.20;;;;;;5011482;28;20480;-39
2020/12/16 09:20:18;;;;;;;1.65;0.60;;;23.10;63.20;;;;;;5011601;28;20443;-39
2020/12/16 09:23:21;;;;;;;3.58;1.40;;;22.90;63.20;;;;;;5009812;28;20518;-38
2020/12/16 09:25:55;;;;;;;2.22;0.90;;;23.00;63.90;;;;;;5018531;28;20053;-39
2020/12/16 09:28:40;;;;;;;1.73;0.70;;;23.00;63.80;;;;;;5006336;28;20100;-39
2020/12/16 09:31:21;;;;;;;5.88;0.68;;;22.60;63.10;;;;;;5010121;28;20042;-38
2020/12/16 09:34:01;;;;;;;3.30;0.45;;;22.50;63.60;;;;;;5013880;28;20038;-40
2020/12/16 09:36:34;;;;;;;1.48;0.40;;;22.40;64.20;;;;;;5018589;28;20140;-40
2020/12/16 09:39:07;;;;;;;0.95;0.50;;;22.30;64.50;;;;;;5013836;28;20134;-40
2020/12/16 09:41:52;;;;;;;11.43;1.10;;;22.30;64.80;;;;;;5017034;28;20161;-40
2020/12/16 09:44:25;;;;;;;2.67;0.40;;;22.40;64.70;;;;;;5012185;28;20518;-40
2020/12/16 09:47:13;;;;;;;3.22;0.50;;;22.40;65.00;;;;;;5009490;28;20049;-40
2020/12/16 09:50:06;;;;;;;1.83;0.50;;;22.30;65.10;;;;;;5018094;28;20184;-40
2020/12/16 09:52:39;;;;;;;1.27;0.65;;;22.40;64.90;;;;;;5014207;28;20099;-40
2020/12/16 09:55:16;;;;;;;3.15;0.20;;;22.40;64.90;;;;;;5018492;28;20050;-40
2020/12/16 09:58:01;;;;;;;7.10;0.63;;;22.30;65.00;;;;;;5015193;28;20077;-40
2020/12/16 10:00:34;;;;;;;1.48;0.40;;;22.20;65.00;;;;;;5014095;28;20144;-39
2020/12/16 10:03:10;;;;;;;7.78;0.93;;;22.00;65.20;;;;;;5010308;28;20041;-40
2020/12/16 10:05:41;;;;;;;0.50;0.30;;;22.00;65.80;;;;;;5016135;28;20147;-40
2020/12/16 10:08:19;;;;;;;1.85;0.55;;;22.10;65.50;;;;;;5015074;28;20123;-39
2020/12/16 10:10:50;;;;;;;1.15;0.40;;;22.10;65.80;;;;;;5017881;28;20034;-40
2020/12/16 10:13:22;;;;;;;0.80;0.20;;;22.10;65.90;;;;;;5015813;28;20122;-40
2020/12/16 10:15:52;;;;;;;;;;;22.00;65.70;;;;;;5019262;28;20056;-39
2020/12/16 10:18:23;;;;;;;1.00;0.30;;;22.00;65.80;;;;;;5008007;28;19925;-39
2020/12/16 10:20:54;;;;;;;2.20;0.35;;;22.00;66.00;;;;;;5008161;28;20078;-42
2020/12/16 10:23:37;;;;;;;6.60;1.13;;;22.10;66.10;;;;;;2756016;28;10002350;-41
2020/12/16 10:26:09;;;;;;;0.52;0.35;;;22.10;65.80;;;;;;2931771;28;10001689;-41
2020/12/16 10:28:41;;;;;;;2.28;0.65;;;22.10;66.20;;;;;;5009676;28;20042;-40
2020/12/16 10:31:11;;;;;;;;;;;22.20;66.10;;;;;;4999729;28;20517;-40
2020/12/16 10:33:42;;;;;;;0.55;0.25;;;22.10;65.60;;;;;;5006189;28;19988;-42
2020/12/16 10:36:13;;;;;;;1.45;0.50;;;22.00;65.50;;;;;;4997188;28;20078;-41
2020/12/16 10:38:44;;;;;;;0.73;0.30;;;22.10;66.10;;;;;;5003798;28;20110;-41
2020/12/16 10:41:15;;;;;;;0.20;0.20;;;22.10;65.90;;;;;;5004306;28;20041;-41
2020/12/16 10:43:46;;;;;;;1.15;0.20;;;22.10;65.80;;;;;;5008586;28;20140;-41
2020/12/16 10:46:17;;;;;;;1.55;0.20;;;22.10;65.60;;;;;;5001864;28;20128;-40
2020/12/16 10:48:48;;;;;;;1.30;0.10;;;22.10;65.30;;;;;;4485402;28;10000233;-40
2020/12/16 10:51:21;;;;;;;0.13;0.13;;;22.00;65.80;;;;;;4463155;28;10000259;-41
2020/12/16 10:53:51;;;;;;;0.10;0.10;;;22.00;65.70;;;;;;5023339;28;20068;-41
2020/12/16 10:56:22;;;;;;;4.25;0.35;;;21.90;65.70;;;;;;5024112;28;20519;-41
2020/12/16 10:58:55;;;;;;;1.55;0.82;;;21.90;65.40;;;;;;5029632;28;20045;-40
2020/12/16 11:01:25;;;;;;;0.10;0.00;;;21.90;65.90;;;;;;5040861;28;20049;-41
2020/12/16 11:03:55;;;;;;;0.20;0.20;;;21.90;65.80;;;;;;4680528;28;10000460;-41
2020/12/16 11:06:28;;;;;;;2.60;0.28;;;21.90;66.00;;;;;;5022696;28;20156;-41
2020/12/16 11:09:00;;;;;;;0.90;0.10;;;21.80;65.70;;;;;;5025512;28;20038;-40
2020/12/16 11:11:33;;;;;;;0.65;0.10;;;21.70;66.10;;;;;;5015573;28;20069;-40
2020/12/16 11:14:03;;;;;;;0.10;0.10;;;21.70;66.30;;;;;;5023826;28;20140;-40
2020/12/16 11:16:34;;;;;;;0.00;0.00;;;21.80;66.20;;;;;;5023661;28;20051;-40
2020/12/16 11:19:05;;;;;;;0.15;0.10;;;21.80;65.80;;;;;;5025630;28;20064;-40
2020/12/16 11:21:43;;;;;;;0.05;0.05;;;21.80;66.10;;;;;;5018814;28;20056;-40
2020/12/16 11:24:18;;;;;;;0.28;0.13;;;21.70;66.00;;;;;;5023200;28;20057;-40
2020/12/16 11:26:52;;;;;;;0.00;0.00;;;21.70;66.10;;;;;;5015032;28;20053;-40
2020/12/16 11:29:26;;;;;;;0.20;0.20;;;21.70;66.10;;;;;;5022870;28;20058;-40
2020/12/16 11:32:01;;;;;;;1.25;0.30;;;21.70;66.20;;;;;;5039849;28;20689;-40
2020/12/16 11:34:33;;;;;;;0.00;0.00;;;21.60;66.20;;;;;;5027189;28;20136;-40
2020/12/16 11:37:04;;;;;;;1.08;0.03;;;21.60;66.10;;;;;;5026561;28;20094;-40
2020/12/16 11:39:36;;;;;;;0.10;0.10;;;21.60;66.20;;;;;;5029587;28;20041;-41
2020/12/16 11:42:07;;;;;;;;;;;21.60;66.30;;;;;;5021205;28;20467;-40
2020/12/16 11:44:37;;;;;;;0.08;0.00;;;21.60;66.30;;;;;;5022953;28;20012;-40
2020/12/16 11:47:11;;;;;;;1.05;0.20;;;21.60;66.40;;;;;;5019034;28;20556;-47
2020/12/16 11:49:45;;;;;;;0.80;0.00;;;21.50;66.40;;;;;;5029787;28;20120;-40
2020/12/16 11:52:17;;;;;;;5.50;0.50;;;21.50;66.40;;;;;;5024160;28;20053;-40
2020/12/16 11:54:48;;;;;;;0.65;0.30;;;21.50;66.40;;;;;;5027225;28;20459;-40
2020/12/16 11:57:22;;;;;;;1.50;0.30;;;21.40;66.50;;;;;;5025470;28;20095;-40
2020/12/16 11:59:52;;;;;;;0.73;0.20;;;21.40;66.70;;;;;;5023602;28;20060;-40
2020/12/16 12:02:22;;;;;;;0.30;0.17;;;21.20;66.80;;;;;;5025402;28;20152;-40
2020/12/16 12:04:53;;;;;;;;;;;21.10;67.00;;;;;;5027975;28;20543;-40
2020/12/16 12:07:24;;;;;;;0.00;0.00;;;21.10;67.30;;;;;;5026541;28;20040;-40
2020/12/16 12:09:55;;;;;;;0.15;0.10;;;21.20;67.40;;;;;;5024231;28;20045;-40
2020/12/16 12:12:29;;;;;;;0.32;0.00;;;21.20;67.10;;;;;;5027675;28;20036;-40
2020/12/16 12:14:59;;;;;;;1.67;0.17;;;21.20;67.10;;;;;;5017619;28;20423;-40
2020/12/16 12:17:29;;;;;;;0.20;0.17;;;21.20;67.20;;;;;;5022905;28;20052;-40
2020/12/16 12:19:59;;;;;;;0.10;0.03;;;21.20;67.30;;;;;;5015077;28;20689;-40
2020/12/16 12:22:31;;;;;;;0.57;0.20;;;21.10;67.20;;;;;;5024345;28;20045;-40
2020/12/16 12:25:02;;;;;;;0.25;0.10;;;21.10;67.40;;;;;;5022735;28;20041;-40
2020/12/16 12:27:35;;;;;;;1.02;0.20;;;21.00;67.70;;;;;;5021182;28;20034;-39
2020/12/16 12:30:07;;;;;;;2.40;0.30;;;21.00;67.60;;;;;;5012821;28;20556;-39
2020/12/16 12:32:38;;;;;;;2.53;0.20;;;20.90;67.40;;;;;;5012457;28;20041;-38
2020/12/16 12:35:10;;;;;;;0.00;0.00;;;20.90;67.90;;;;;;5012753;28;20041;-39
2020/12/16 12:37:40;;;;;;;2.55;0.10;;;20.80;67.80;;;;;;5015880;28;20064;-39
2020/12/16 12:40:12;;;;;;;0.43;0.40;;;20.70;68.10;;;;;;5010054;28;20516;-39
2020/12/16 12:42:45;;;;;;;1.02;0.13;;;20.50;68.30;;;;;;5003881;28;20355;-38
2020/12/16 12:45:15;;;;;;;0.00;0.00;;;20.50;68.50;;;;;;5013969;28;20091;-39
2020/12/16 12:47:45;;;;;;;0.40;0.10;;;20.60;68.80;;;;;;5008260;28;20104;-39
2020/12/16 12:50:20;;;;;;;0.05;0.05;;;20.50;68.90;;;;;;5003204;28;20409;-39
2020/12/16 12:52:54;;;;;;;0.30;0.00;;;20.50;69.20;;;;;;5008141;28;20049;-39
2020/12/16 12:55:25;;;;;;;0.00;0.00;;;20.50;69.10;;;;;;5013329;28;20041;-39
2020/12/16 12:57:55;;;;;;;1.65;0.13;;;20.30;69.10;;;;;;5011678;28;20140;-39
2020/12/16 13:00:25;;;;;;;2.38;0.13;;;20.20;69.40;;;;;;5014571;28;20077;-40
2020/12/16 13:02:56;;;;;;;0.28;0.10;;;19.90;69.70;;;;;;5016309;28;20045;-40
2020/12/16 13:05:26;;;;;;;;;;;19.90;70.50;;;;;;5013231;28;20117;-40
2020/12/16 13:07:59;;;;;;;0.08;0.08;;;20.00;70.60;;;;;;5016777;28;20018;-40
2020/12/16 13:10:33;;;;;;;0.10;0.10;;;20.00;70.60;;;;;;5007602;28;20033;-40
2020/12/16 13:13:03;;;;;;;0.00;0.00;;;19.90;70.80;;;;;;5003832;28;20387;-41
2020/12/16 13:15:34;;;;;;;0.03;0.00;;;19.90;71.00;;;;;;5007658;28;20038;-40
2020/12/16 13:18:05;;;;;;;;;;;19.90;71.00;;;;;;5008613;28;20051;-40
2020/12/16 13:20:35;;;;;;;0.10;0.10;;;19.90;71.10;;;;;;5012093;28;19925;-40
2020/12/16 13:23:06;;;;;;;0.10;0.10;;;19.80;71.30;;;;;;5011875;28;20042;-40
2020/12/16 13:25:38;;;;;;;0.10;0.10;;;19.90;71.40;;;;;;5009896;28;20065;-40
2020/12/16 13:28:08;;;;;;;;;;;19.90;71.50;;;;;;5020962;28;20041;-41
2020/12/16 13:30:38;;;;;;;0.00;0.00;;;19.90;71.10;;;;;;5019197;28;20044;-40